Time;durP1;ratioP1;P1;durP2;ratioP2;P2;SDS_P1;SDS_P2;PMS_P1;PMS_P2;Temp;Humidity;BMP_temperature;BMP_pressure;BME280_temperature;BME280_humidity;BME280_pressure;Samples;Min_cycle;Max_cycle;Signal;HPM_P1;HPM_P2
2024/01/08 00:01:50;;;;;;;8.55;5.55;;;-2.20;99.90;;;;;;7370665;19;20018;-74
2024/01/08 00:04:17;;;;;;;9.50;5.50;;;-2.10;99.90;;;;;;7371124;19;20028;-74
2024/01/08 00:07:03;;;;;;;8.50;5.03;;;-2.20;99.90;;;;;;7372464;19;20708;-73
2024/01/08 00:09:30;;;;;;;9.25;5.30;;;-2.20;99.90;;;;;;7372643;19;20502;-74
2024/01/08 00:11:57;;;;;;;7.22;5.50;;;-2.20;99.90;;;;;;7373830;19;20030;-63
2024/01/08 00:14:23;;;;;;;8.27;4.72;;;-2.20;99.90;;;;;;7371742;19;20018;-63
2024/01/08 00:16:49;;;;;;;10.43;6.30;;;-2.20;99.90;;;;;;7373183;19;20040;-74
2024/01/08 00:19:16;;;;;;;8.73;5.47;;;-2.20;99.90;;;;;;7370319;19;20519;-73
2024/01/08 00:22:02;;;;;;;7.63;5.10;;;-2.20;99.90;;;;;;7371385;19;20885;-63
2024/01/08 00:24:29;;;;;;;7.15;5.43;;;-2.20;99.90;;;;;;7372676;19;20355;-64
2024/01/08 00:26:55;;;;;;;8.75;5.05;;;-2.20;99.90;;;;;;7372794;19;20018;-63
2024/01/08 00:29:22;;;;;;;7.20;5.03;;;-2.20;99.90;;;;;;7370295;19;20022;-73
2024/01/08 00:31:48;;;;;;;8.23;5.50;;;-2.20;99.90;;;;;;7376119;19;20026;-73
2024/01/08 00:34:14;;;;;;;9.48;6.05;;;-2.20;99.90;;;;;;7368476;19;20018;-73
2024/01/08 00:36:41;;;;;;;16.88;10.18;;;-2.20;99.90;;;;;;7368036;19;20007;-63
2024/01/08 00:39:09;;;;;;;10.43;6.20;;;-2.20;99.90;;;;;;7367429;19;20530;-74
2024/01/08 00:41:55;;;;;;;10.48;5.50;;;-2.20;99.90;;;;;;7368587;19;20019;-63
2024/01/08 00:44:21;;;;;;;7.97;5.43;;;-2.20;99.90;;;;;;7367355;19;20705;-63
2024/01/08 00:46:48;;;;;;;7.47;5.00;;;-2.20;99.90;;;;;;7370592;19;20023;-63
2024/01/08 00:49:14;;;;;;;9.18;5.95;;;-2.20;99.90;;;;;;7377715;19;20490;-63
2024/01/08 00:51:41;;;;;;;6.85;5.07;;;-2.20;99.90;;;;;;7379204;19;20018;-63
2024/01/08 00:54:27;;;;;;;9.88;6.15;;;-2.20;99.90;;;;;;7372937;19;20102;-63
2024/01/08 00:56:54;;;;;;;11.02;6.70;;;-2.20;99.90;;;;;;7375274;19;20468;-74
2024/01/08 00:59:20;;;;;;;9.13;5.80;;;-2.20;99.90;;;;;;7372034;19;20019;-73
2024/01/08 01:01:46;;;;;;;10.63;6.82;;;-2.20;99.90;;;;;;7376074;19;20026;-73
2024/01/08 01:04:12;;;;;;;9.75;6.13;;;-2.20;99.90;;;;;;7373533;19;20022;-73
2024/01/08 01:06:58;;;;;;;10.75;7.78;;;-2.20;99.90;;;;;;7375759;19;20022;-63
2024/01/08 01:09:25;;;;;;;7.97;6.20;;;-2.20;99.90;;;;;;7373740;19;20022;-63
2024/01/08 01:11:51;;;;;;;10.13;6.53;;;-2.20;99.90;;;;;;7376457;19;20024;-63
2024/01/08 01:14:17;;;;;;;10.70;7.82;;;-2.20;99.90;;;;;;7372860;19;20694;-64
2024/01/08 01:16:44;;;;;;;11.82;7.40;;;-2.10;99.90;;;;;;7373405;19;20504;-63
2024/01/08 01:19:10;;;;;;;11.25;7.32;;;-2.10;99.90;;;;;;7374316;19;20838;-63
2024/01/08 01:21:36;;;;;;;11.93;7.40;;;-1.90;99.90;;;;;;7374119;19;20034;-63
2024/01/08 01:24:04;;;;;;;11.68;7.00;;;-1.90;99.90;;;;;;7371861;19;20035;-63
2024/01/08 01:26:31;;;;;;;11.02;7.50;;;-1.80;99.90;;;;;;7376205;19;20022;-63
2024/01/08 01:28:58;;;;;;;10.30;7.80;;;-1.70;99.90;;;;;;7362037;19;20089;-74
2024/01/08 01:31:24;;;;;;;10.70;7.78;;;-1.70;99.90;;;;;;7374664;19;20106;-63
2024/01/08 01:33:50;;;;;;;10.57;6.03;;;-1.60;99.90;;;;;;7374959;19;20378;-63
2024/01/08 01:36:17;;;;;;;11.55;7.78;;;-1.60;99.90;;;;;;7373985;19;20545;-73
2024/01/08 01:38:43;;;;;;;9.18;6.25;;;-1.60;99.90;;;;;;7373658;19;20510;-63
2024/01/08 01:41:11;;;;;;;13.35;9.00;;;-1.50;99.90;;;;;;7373275;19;20026;-63
2024/01/08 01:43:38;;;;;;;11.75;7.85;;;-1.60;99.90;;;;;;7373528;19;20010;-73
2024/01/08 01:46:10;;;;;;;12.02;7.35;;;-1.50;99.90;;;;;;7372055;19;20022;-73
2024/01/08 01:48:36;;;;;;;10.40;6.97;;;-1.50;99.90;;;;;;7373954;19;20021;-73
2024/01/08 01:51:03;;;;;;;9.00;6.45;;;-1.50;99.90;;;;;;7375694;19;20029;-73
2024/01/08 01:53:31;;;;;;;11.35;6.93;;;-1.50;99.90;;;;;;7375698;19;20066;-63
2024/01/08 01:55:58;;;;;;;11.70;7.32;;;-1.40;99.90;;;;;;7378705;19;20051;-63
2024/01/08 01:58:24;;;;;;;11.93;7.35;;;-1.40;99.90;;;;;;7372236;19;20764;-63
2024/01/08 02:00:51;;;;;;;11.60;7.63;;;-1.40;99.90;;;;;;7373448;19;20014;-73
2024/01/08 02:03:18;;;;;;;11.43;7.85;;;-1.40;99.90;;;;;;7365069;19;20018;-73
2024/01/08 02:05:44;;;;;;;11.10;6.68;;;-1.40;99.90;;;;;;7368177;19;20477;-73
2024/01/08 02:08:11;;;;;;;11.55;8.10;;;-1.30;99.90;;;;;;7377434;19;20470;-72
2024/01/08 02:10:42;;;;;;;11.60;7.40;;;-1.30;99.90;;;;;;7372115;19;20015;-73
2024/01/08 02:13:28;;;;;;;10.98;7.22;;;-1.30;99.90;;;;;;7373126;19;20030;-72
2024/01/08 02:15:55;;;;;;;11.52;8.00;;;-1.20;99.90;;;;;;7375528;19;20656;-72
2024/01/08 02:18:22;;;;;;;12.13;7.45;;;-1.20;99.90;;;;;;7371388;19;20109;-73
2024/01/08 02:20:48;;;;;;;9.02;6.40;;;-1.20;99.90;;;;;;7372582;19;20011;-72
2024/01/08 02:23:15;;;;;;;11.30;7.70;;;-1.20;99.90;;;;;;7372461;19;20557;-73
2024/01/08 02:26:01;;;;;;;10.73;7.40;;;-1.10;99.90;;;;;;7374762;19;20022;-73
2024/01/08 02:28:27;;;;;;;11.32;8.55;;;-1.10;99.90;;;;;;7369678;19;20035;-72
2024/01/08 02:30:55;;;;;;;13.80;9.23;;;-1.10;99.90;;;;;;7373252;19;20014;-72
2024/01/08 02:33:21;;;;;;;9.93;7.38;;;-1.00;99.90;;;;;;7374124;19;20025;-73
2024/01/08 02:35:48;;;;;;;11.07;8.45;;;-1.10;99.90;;;;;;7370639;19;20025;-72
2024/01/08 02:38:14;;;;;;;11.90;9.02;;;-1.00;99.90;;;;;;7373936;19;20022;-72
2024/01/08 02:40:44;;;;;;;10.13;8.57;;;-1.00;99.90;;;;;;7369218;19;20539;-72
2024/01/08 02:43:10;;;;;;;10.90;7.28;;;-1.00;99.90;;;;;;7372301;19;20026;-72
2024/01/08 02:45:36;;;;;;;11.75;8.82;;;-1.00;99.90;;;;;;7370489;19;20532;-73
2024/01/08 02:48:03;;;;;;;12.23;8.50;;;-1.00;99.90;;;;;;7373741;19;20035;-73
2024/01/08 02:50:29;;;;;;;10.15;8.50;;;-1.00;99.90;;;;;;7369698;19;20061;-73
2024/01/08 02:52:55;;;;;;;10.13;8.30;;;-1.00;99.90;;;;;;7373371;19;20060;-62
2024/01/08 02:55:22;;;;;;;11.70;8.13;;;-1.00;99.90;;;;;;7369269;19;20015;-63
2024/01/08 02:57:48;;;;;;;10.90;8.18;;;-1.00;99.90;;;;;;7368408;19;20144;-63
2024/01/08 03:00:15;;;;;;;11.13;7.82;;;-1.00;99.90;;;;;;7373436;19;20074;-62
2024/01/08 03:02:44;;;;;;;10.52;7.93;;;-1.00;99.90;;;;;;7370704;19;20034;-63
2024/01/08 03:05:10;;;;;;;11.63;8.10;;;-1.00;99.90;;;;;;7373408;19;20010;-63
2024/01/08 03:07:37;;;;;;;11.93;8.02;;;-0.90;99.90;;;;;;7368736;19;20018;-62
2024/01/08 03:10:03;;;;;;;13.90;8.80;;;-0.90;99.90;;;;;;7370672;19;20048;-63
2024/01/08 03:12:30;;;;;;;11.35;8.90;;;-0.90;99.90;;;;;;7367612;19;20090;-63
2024/01/08 03:14:56;;;;;;;10.98;7.93;;;-0.90;99.90;;;;;;7374669;19;20102;-72
2024/01/08 03:17:22;;;;;;;12.50;9.20;;;-0.90;99.90;;;;;;7369763;19;20018;-72
2024/01/08 03:19:49;;;;;;;10.45;6.88;;;-0.80;99.90;;;;;;7371688;19;20023;-72
2024/01/08 03:22:35;;;;;;;11.32;8.40;;;-0.80;99.90;;;;;;7368503;19;20461;-73
2024/01/08 03:25:01;;;;;;;12.85;8.32;;;-0.70;99.90;;;;;;7373102;19;20018;-72
2024/01/08 03:27:27;;;;;;;11.85;9.00;;;-0.80;99.90;;;;;;7366042;19;20026;-62
2024/01/08 03:29:54;;;;;;;11.55;8.38;;;-0.80;99.90;;;;;;7370265;19;20022;-63
2024/01/08 03:32:20;;;;;;;11.43;8.73;;;-0.70;99.90;;;;;;7370255;19;20061;-62
2024/01/08 03:34:46;;;;;;;12.07;8.38;;;-0.70;99.90;;;;;;7372106;19;20047;-63
2024/01/08 03:37:13;;;;;;;12.15;8.45;;;-0.70;99.90;;;;;;7370873;19;20030;-73
2024/01/08 03:39:39;;;;;;;10.77;7.90;;;-0.70;99.90;;;;;;7369861;19;20596;-72
2024/01/08 03:42:05;;;;;;;11.75;7.47;;;-0.70;99.90;;;;;;7368783;19;20070;-73
2024/01/08 03:44:32;;;;;;;12.30;8.88;;;-0.70;99.90;;;;;;7368702;19;20014;-73
2024/01/08 03:46:58;;;;;;;13.98;8.55;;;-0.70;99.90;;;;;;7372988;19;21250;-73
2024/01/08 03:49:24;;;;;;;10.20;7.75;;;-0.70;99.90;;;;;;7370731;19;20118;-73
2024/01/08 03:51:50;;;;;;;10.45;8.25;;;-0.70;99.90;;;;;;7371299;19;20029;-72
2024/01/08 03:54:17;;;;;;;13.35;9.27;;;-0.60;99.90;;;;;;7369977;19;20426;-73
2024/01/08 03:56:44;;;;;;;13.48;7.80;;;-0.70;99.90;;;;;;7370099;19;20040;-73
2024/01/08 03:59:13;;;;;;;10.13;7.22;;;-0.60;99.90;;;;;;7370062;19;20022;-63
2024/01/08 04:01:44;;;;;;;9.65;6.90;;;-0.60;99.90;;;;;;7367812;19;20021;-63
2024/01/08 04:04:11;;;;;;;18.85;7.82;;;-0.60;99.90;;;;;;7372238;19;20079;-72
2024/01/08 04:06:57;;;;;;;11.95;7.40;;;-0.60;99.90;;;;;;7370885;19;20667;-62
2024/01/08 04:09:24;;;;;;;9.98;7.20;;;-0.60;99.90;;;;;;7370274;19;20018;-63
2024/01/08 04:11:50;;;;;;;9.07;6.60;;;-0.60;99.90;;;;;;7368260;19;20082;-72
2024/01/08 04:14:16;;;;;;;10.38;7.00;;;-0.60;99.90;;;;;;7369416;19;20022;-72
2024/01/08 04:16:42;;;;;;;8.90;6.38;;;-0.60;99.90;;;;;;7366902;19;20041;-72
2024/01/08 04:19:08;;;;;;;9.82;6.95;;;-0.60;99.90;;;;;;7370628;19;20014;-72
2024/01/08 04:21:34;;;;;;;10.85;7.82;;;-0.60;99.90;;;;;;7370569;19;20082;-63
2024/01/08 04:24:01;;;;;;;10.65;7.20;;;-0.60;99.90;;;;;;7375693;19;20796;-62
2024/01/08 04:26:27;;;;;;;11.88;6.97;;;-0.60;99.90;;;;;;7375648;19;20820;-62
2024/01/08 04:28:53;;;;;;;10.20;7.30;;;-0.60;99.90;;;;;;7377016;19;20019;-62
2024/01/08 04:31:20;;;;;;;9.23;6.63;;;-0.60;99.90;;;;;;7375687;19;20038;-62
2024/01/08 04:33:48;;;;;;;12.07;6.82;;;-0.70;99.90;;;;;;7376929;19;20027;-62
2024/01/08 04:36:15;;;;;;;9.30;6.57;;;-0.60;99.90;;;;;;7378518;19;20022;-62
2024/01/08 04:38:44;;;;;;;9.88;7.15;;;-0.70;99.90;;;;;;7374571;19;20015;-62
2024/01/08 04:41:10;;;;;;;9.13;6.38;;;-0.70;99.90;;;;;;7376762;19;20022;-62
2024/01/08 04:43:37;;;;;;;9.32;6.47;;;-0.70;99.90;;;;;;7371478;19;20026;-72
2024/01/08 04:46:07;;;;;;;9.02;5.45;;;-0.80;99.90;;;;;;7372216;19;20029;-73
2024/01/08 04:48:35;;;;;;;9.75;5.60;;;-0.70;99.90;;;;;;7373590;19;20018;-72
2024/01/08 04:51:01;;;;;;;7.75;5.47;;;-0.80;99.90;;;;;;7378164;19;20121;-72
2024/01/08 04:53:27;;;;;;;10.07;6.63;;;-0.80;99.90;;;;;;7372858;19;20029;-72
2024/01/08 04:55:54;;;;;;;7.97;5.35;;;-0.80;99.90;;;;;;7378585;19;20014;-72
2024/01/08 04:58:21;;;;;;;8.23;5.80;;;-0.90;99.90;;;;;;7372206;19;20073;-62
2024/01/08 05:01:07;;;;;;;7.50;4.88;;;-0.80;99.90;;;;;;7375414;19;20022;-63
2024/01/08 05:03:33;;;;;;;8.10;6.07;;;-0.80;99.90;;;;;;7371148;19;20093;-71
2024/01/08 05:05:59;;;;;;;9.35;5.75;;;-0.90;99.90;;;;;;7376293;19;20014;-73
2024/01/08 05:08:25;;;;;;;8.20;5.30;;;-0.90;99.90;;;;;;7370024;19;20037;-63
2024/01/08 05:10:51;;;;;;;8.75;5.75;;;-0.90;99.90;;;;;;7374786;19;20026;-62
2024/01/08 05:13:18;;;;;;;10.05;5.95;;;-0.90;99.90;;;;;;7375999;19;20030;-62
2024/01/08 05:15:44;;;;;;;7.75;5.47;;;-0.90;99.90;;;;;;7375510;19;20057;-71
2024/01/08 05:18:10;;;;;;;7.80;4.53;;;-0.90;99.90;;;;;;7375312;19;20055;-64
2024/01/08 05:20:36;;;;;;;7.40;4.95;;;-0.90;99.90;;;;;;7375988;19;20516;-72
2024/01/08 05:23:03;;;;;;;9.50;5.88;;;-1.00;99.90;;;;;;7370667;19;20106;-72
2024/01/08 05:25:34;;;;;;;7.60;4.90;;;-1.00;99.90;;;;;;7374992;19;20027;-72
2024/01/08 05:28:20;;;;;;;8.25;5.43;;;-1.00;99.90;;;;;;7373465;19;20022;-72
2024/01/08 05:30:46;;;;;;;7.53;5.18;;;-1.10;99.90;;;;;;7375228;19;20014;-72
2024/01/08 05:33:12;;;;;;;7.78;5.22;;;-1.00;99.90;;;;;;7370351;19;20018;-72
2024/01/08 05:35:39;;;;;;;7.00;4.60;;;-1.00;99.90;;;;;;7374614;19;20022;-72
2024/01/08 05:38:05;;;;;;;7.03;4.28;;;-1.00;99.90;;;;;;7378486;19;20031;-72
2024/01/08 05:40:31;;;;;;;8.35;5.90;;;-0.90;99.90;;;;;;7375500;19;20011;-72
2024/01/08 05:42:57;;;;;;;7.32;6.05;;;-1.00;99.90;;;;;;7375242;19;20015;-72
2024/01/08 05:45:23;;;;;;;7.72;6.00;;;-1.00;99.90;;;;;;7373693;19;20059;-72
2024/01/08 05:47:50;;;;;;;7.88;5.00;;;-1.00;99.90;;;;;;7374766;19;20505;-73
2024/01/08 05:50:17;;;;;;;7.57;5.13;;;-1.10;99.90;;;;;;7376177;19;20380;-72
2024/01/08 05:52:44;;;;;;;9.60;5.88;;;-1.00;99.90;;;;;;7376255;19;20015;-72
2024/01/08 05:55:14;;;;;;;12.82;5.75;;;-1.00;99.90;;;;;;7375869;19;20050;-72
2024/01/08 05:57:40;;;;;;;8.55;6.03;;;-1.10;99.90;;;;;;7375792;19;20014;-72
2024/01/08 06:00:07;;;;;;;9.82;5.95;;;-1.00;99.90;;;;;;7374769;19;20015;-71
2024/01/08 06:02:34;;;;;;;8.75;5.65;;;-1.10;99.90;;;;;;7373143;19;20093;-72
2024/01/08 06:05:00;;;;;;;6.97;5.97;;;-1.10;99.90;;;;;;7376545;19;20537;-72
2024/01/08 06:07:26;;;;;;;9.68;6.30;;;-1.10;99.90;;;;;;7376037;19;20011;-72
2024/01/08 06:09:52;;;;;;;10.63;6.28;;;-1.10;99.90;;;;;;7374071;19;20497;-71
2024/01/08 06:12:18;;;;;;;8.38;6.40;;;-1.10;99.90;;;;;;7373148;19;20022;-72
2024/01/08 06:14:45;;;;;;;9.43;6.55;;;-1.10;99.90;;;;;;7369242;19;20094;-70
2024/01/08 06:17:11;;;;;;;11.18;7.32;;;-1.10;99.90;;;;;;7374338;19;20087;-71
2024/01/08 06:19:37;;;;;;;10.05;6.80;;;-1.10;99.90;;;;;;7371875;19;20022;-71
2024/01/08 06:22:04;;;;;;;11.68;6.72;;;-1.10;99.90;;;;;;7373330;19;20136;-71
2024/01/08 06:24:31;;;;;;;10.10;7.10;;;-1.10;99.90;;;;;;7369516;19;20811;-71
2024/01/08 06:26:57;;;;;;;11.80;6.50;;;-1.10;99.90;;;;;;7374005;19;20037;-71
2024/01/08 06:29:23;;;;;;;10.27;6.95;;;-1.10;99.90;;;;;;7371721;19;20055;-71
2024/01/08 06:31:49;;;;;;;13.10;7.30;;;-1.10;99.90;;;;;;7374194;19;20067;-62
2024/01/08 06:34:15;;;;;;;11.07;6.60;;;-1.10;99.90;;;;;;7372505;19;20062;-71
2024/01/08 06:36:42;;;;;;;9.00;6.38;;;-1.10;99.90;;;;;;7371612;19;20031;-62
2024/01/08 06:39:11;;;;;;;13.35;7.40;;;-1.10;99.90;;;;;;7370307;19;20019;-62
2024/01/08 06:41:58;;;;;;;10.30;6.43;;;-1.10;99.90;;;;;;7373190;19;20022;-72
2024/01/08 06:44:24;;;;;;;14.25;7.55;;;-1.10;99.90;;;;;;7369719;19;20044;-63
2024/01/08 06:46:50;;;;;;;15.98;10.02;;;-1.10;99.90;;;;;;7376146;19;20811;-62
2024/01/08 06:49:17;;;;;;;18.60;12.13;;;-1.10;99.90;;;;;;7376866;19;20033;-62
2024/01/08 06:51:43;;;;;;;14.25;7.28;;;-1.10;99.90;;;;;;7377498;19;20018;-62
2024/01/08 06:54:10;;;;;;;20.17;12.18;;;-1.10;99.90;;;;;;7372855;19;20022;-62
2024/01/08 06:56:36;;;;;;;13.55;7.63;;;-1.00;99.90;;;;;;7375500;19;20014;-62
2024/01/08 06:59:03;;;;;;;9.35;6.68;;;-1.10;99.90;;;;;;7374695;19;20020;-62
2024/01/08 07:01:31;;;;;;;11.63;7.80;;;-1.00;99.90;;;;;;7374924;19;20023;-62
2024/01/08 07:03:57;;;;;;;15.07;8.75;;;-1.00;99.90;;;;;;7372459;19;20785;-62
2024/01/08 07:06:24;;;;;;;13.82;9.77;;;-1.00;99.90;;;;;;7373536;19;20022;-62
2024/01/08 07:08:51;;;;;;;13.75;8.13;;;-1.00;99.90;;;;;;7373683;19;20018;-63
2024/01/08 07:11:22;;;;;;;12.63;7.45;;;-1.00;99.90;;;;;;7377234;19;20019;-62
2024/01/08 07:13:49;;;;;;;19.63;11.20;;;-1.00;99.90;;;;;;7374097;19;20011;-71
2024/01/08 07:16:17;;;;;;;20.73;13.02;;;-1.00;99.90;;;;;;7373874;19;20506;-71
2024/01/08 07:18:43;;;;;;;11.70;7.88;;;-1.00;99.90;;;;;;7371459;19;20784;-71
2024/01/08 07:21:11;;;;;;;19.33;11.60;;;-1.00;99.90;;;;;;7373465;19;20042;-71
2024/01/08 07:23:39;;;;;;;10.38;6.47;;;-1.00;99.90;;;;;;7369636;19;20015;-71
2024/01/08 07:26:05;;;;;;;12.50;6.88;;;-1.00;99.90;;;;;;7373751;19;20108;-71
2024/01/08 07:28:31;;;;;;;11.65;6.78;;;-0.90;99.90;;;;;;7370432;19;20046;-71
2024/01/08 07:30:58;;;;;;;20.75;12.45;;;-0.90;99.90;;;;;;7373956;19;20666;-71
2024/01/08 07:33:24;;;;;;;15.00;8.18;;;-0.90;99.90;;;;;;7369896;19;20037;-71
2024/01/08 07:35:50;;;;;;;24.73;14.65;;;-0.90;99.90;;;;;;7376215;19;20014;-62
2024/01/08 07:38:17;;;;;;;15.30;9.57;;;-0.90;99.90;;;;;;7371072;19;20022;-62
2024/01/08 07:40:43;;;;;;;14.55;7.85;;;-0.80;99.90;;;;;;7373593;19;20014;-62
2024/01/08 07:43:09;;;;;;;12.73;7.20;;;-0.90;99.90;;;;;;7371493;19;20019;-62
2024/01/08 07:45:55;;;;;;;11.20;7.32;;;-0.90;99.90;;;;;;7370745;19;20055;-62
2024/01/08 07:48:22;;;;;;;28.42;18.00;;;-0.80;99.90;;;;;;7370838;19;20016;-62
2024/01/08 07:50:49;;;;;;;34.97;22.90;;;-0.80;99.90;;;;;;7372763;19;20098;-62
2024/01/08 07:53:16;;;;;;;10.60;6.60;;;-0.70;99.90;;;;;;7372294;19;20042;-61
2024/01/08 07:55:42;;;;;;;11.77;6.78;;;-0.70;99.90;;;;;;7372564;19;20015;-62
2024/01/08 07:58:29;;;;;;;15.38;9.75;;;-0.80;99.90;;;;;;7373537;19;20014;-62
2024/01/08 08:00:55;;;;;;;19.30;9.35;;;-0.70;99.90;;;;;;7369777;19;20040;-62
2024/01/08 08:03:22;;;;;;;11.77;6.18;;;-0.70;99.90;;;;;;7368410;19;20124;-62
2024/01/08 08:05:50;;;;;;;21.15;13.55;;;-0.70;99.90;;;;;;7367760;19;20017;-62
2024/01/08 08:08:17;;;;;;;21.45;11.55;;;-0.70;99.90;;;;;;7372930;19;20022;-70
2024/01/08 08:10:43;;;;;;;9.88;4.60;;;-0.60;99.90;;;;;;7369656;19;20022;-71
2024/01/08 08:13:09;;;;;;;11.65;7.88;;;-0.60;99.90;;;;;;7372393;19;20015;-71
2024/01/08 08:15:35;;;;;;;9.02;6.10;;;-0.60;99.90;;;;;;7370223;19;20031;-71
2024/01/08 08:18:01;;;;;;;7.45;4.97;;;-0.60;99.90;;;;;;7372628;19;20026;-71
2024/01/08 08:20:28;;;;;;;20.02;12.55;;;-0.50;99.90;;;;;;7371343;19;20010;-72
2024/01/08 08:22:54;;;;;;;10.23;5.57;;;-0.50;99.90;;;;;;7369832;19;20832;-62
2024/01/08 08:25:20;;;;;;;8.55;5.43;;;-0.50;99.90;;;;;;7372128;19;20098;-62
2024/01/08 08:27:46;;;;;;;9.10;5.10;;;-0.50;99.90;;;;;;7368316;19;20025;-62
2024/01/08 08:30:16;;;;;;;6.40;4.90;;;-0.40;99.90;;;;;;7372756;19;20095;-62
2024/01/08 08:32:42;;;;;;;11.63;6.85;;;-0.40;99.90;;;;;;7371371;19;20022;-62
2024/01/08 08:35:08;;;;;;;11.07;6.40;;;-0.40;99.90;;;;;;7373398;19;20026;-71
2024/01/08 08:37:36;;;;;;;26.02;17.40;;;-0.40;99.90;;;;;;7370547;19;20022;-71
2024/01/08 08:40:03;;;;;;;18.15;11.75;;;-0.40;99.90;;;;;;7371920;19;20022;-71
2024/01/08 08:42:29;;;;;;;31.88;18.15;;;-0.30;99.90;;;;;;7369159;19;20020;-71
2024/01/08 08:44:55;;;;;;;8.65;5.13;;;-0.30;99.90;;;;;;7372468;19;20022;-71
2024/01/08 08:47:25;;;;;;;12.50;8.60;;;-0.30;99.90;;;;;;7366144;19;20014;-63
2024/01/08 08:50:12;;;;;;;19.58;12.00;;;-0.30;99.90;;;;;;7372573;19;20381;-62
2024/01/08 08:52:39;;;;;;;10.07;5.85;;;-0.30;99.90;;;;;;7369855;19;20078;-62
2024/01/08 08:55:25;;;;;;;17.98;11.18;;;-0.30;99.90;;;;;;7370142;19;20400;-70
2024/01/08 08:57:51;;;;;;;9.90;5.93;;;-0.20;99.90;;;;;;7368961;19;20022;-71
2024/01/08 09:00:18;;;;;;;12.18;7.75;;;-0.20;99.90;;;;;;7371453;19;20018;-69
2024/01/08 09:02:44;;;;;;;15.25;10.57;;;-0.20;99.90;;;;;;7370817;19;20010;-62
2024/01/08 09:05:11;;;;;;;13.15;8.05;;;-0.20;99.90;;;;;;7372744;19;20031;-71
2024/01/08 09:07:38;;;;;;;9.02;5.05;;;-0.20;99.90;;;;;;7369052;19;20046;-71
2024/01/08 09:10:05;;;;;;;9.55;6.70;;;-0.20;99.90;;;;;;7382088;19;20011;-70
2024/01/08 09:12:31;;;;;;;23.92;14.82;;;-0.20;99.90;;;;;;7377388;19;20018;-63
2024/01/08 09:14:57;;;;;;;20.13;12.93;;;-0.10;99.90;;;;;;7378738;19;20022;-71
2024/01/08 09:17:23;;;;;;;42.25;26.48;;;-0.10;99.90;;;;;;7378472;19;20946;-63
2024/01/08 09:19:50;;;;;;;11.02;6.18;;;-0.10;99.90;;;;;;7378112;19;20025;-62
2024/01/08 09:22:16;;;;;;;18.17;11.77;;;-0.10;99.90;;;;;;7376454;19;20014;-63
2024/01/08 09:24:43;;;;;;;9.05;6.15;;;-0.10;99.90;;;;;;7374089;19;20043;-63
2024/01/08 09:27:09;;;;;;;18.67;11.77;;;0.00;99.90;;;;;;7377780;19;20018;-63
2024/01/08 09:29:35;;;;;;;13.75;8.55;;;0.00;99.90;;;;;;7372942;19;20014;-63
2024/01/08 09:32:02;;;;;;;21.20;13.38;;;0.00;99.90;;;;;;7377773;19;20021;-63
2024/01/08 09:34:28;;;;;;;29.83;19.13;;;0.00;99.90;;;;;;7373981;19;20175;-63
2024/01/08 09:36:55;;;;;;;7.70;4.80;;;0.00;99.90;;;;;;7376950;19;20010;-61
2024/01/08 09:39:41;;;;;;;11.70;8.82;;;0.00;99.90;;;;;;7376012;19;20015;-63
2024/01/08 09:42:11;;;;;;;14.25;8.18;;;0.00;99.90;;;;;;7373865;19;20734;-62
2024/01/08 09:44:40;;;;;;;19.77;12.38;;;0.10;99.90;;;;;;7372406;19;20078;-62
2024/01/08 09:47:07;;;;;;;10.30;6.60;;;0.10;99.90;;;;;;7370828;19;20374;-62
2024/01/08 09:49:34;;;;;;;7.35;4.22;;;0.10;99.90;;;;;;7375422;19;20018;-63
2024/01/08 09:52:05;;;;;;;7.10;4.95;;;0.10;99.90;;;;;;7376363;19;20021;-63
2024/01/08 09:54:33;;;;;;;18.08;9.80;;;0.10;99.90;;;;;;7374990;19;20505;-63
2024/01/08 09:56:59;;;;;;;19.08;11.00;;;0.20;99.90;;;;;;7373789;19;20057;-63
2024/01/08 09:59:26;;;;;;;13.35;9.00;;;0.20;99.90;;;;;;7374811;19;20022;-63
2024/01/08 10:01:54;;;;;;;15.98;10.77;;;0.20;99.90;;;;;;7376276;19;20022;-63
2024/01/08 10:04:24;;;;;;;17.17;9.80;;;0.20;99.90;;;;;;7374292;19;20018;-62
2024/01/08 10:07:12;;;;;;;11.77;4.70;;;0.20;99.90;;;;;;7373272;19;20014;-63
2024/01/08 10:09:38;;;;;;;13.30;7.70;;;0.20;99.90;;;;;;7375021;19;20719;-63
2024/01/08 10:12:07;;;;;;;10.13;5.85;;;0.20;99.90;;;;;;7377070;19;20022;-63
2024/01/08 10:14:34;;;;;;;12.02;8.68;;;0.20;99.90;;;;;;7372879;19;20023;-62
2024/01/08 10:17:00;;;;;;;13.57;7.07;;;0.30;99.90;;;;;;7374132;19;20035;-71
2024/01/08 10:19:27;;;;;;;6.88;4.68;;;0.30;99.90;;;;;;7375363;19;20021;-72
2024/01/08 10:22:11;;;;;;;6.65;3.88;;;0.30;99.90;;;;;;7372495;19;20499;-71
2024/01/08 10:24:39;;;;;;;11.38;6.72;;;0.40;99.90;;;;;;7373894;19;20030;-71
2024/01/08 10:27:08;;;;;;;9.60;5.65;;;0.40;99.90;;;;;;7374265;19;20015;-71
2024/01/08 10:29:38;;;;;;;26.75;17.05;;;0.40;99.90;;;;;;7374237;19;20015;-72
2024/01/08 10:32:06;;;;;;;11.07;7.47;;;0.50;99.90;;;;;;7377791;19;20771;-71
2024/01/08 10:34:34;;;;;;;12.38;6.78;;;0.50;99.90;;;;;;7376586;19;20018;-71
2024/01/08 10:37:00;;;;;;;29.15;18.50;;;0.50;99.90;;;;;;7374775;19;20029;-71
2024/01/08 10:39:30;;;;;;;12.35;7.25;;;0.50;99.90;;;;;;7372969;19;20045;-71
2024/01/08 10:41:58;;;;;;;14.38;9.48;;;0.50;99.90;;;;;;7376587;19;20018;-72
2024/01/08 10:44:25;;;;;;;8.63;5.38;;;0.40;99.90;;;;;;7374937;19;20031;-72
2024/01/08 10:46:58;;;;;;;10.23;6.50;;;0.40;99.90;;;;;;7374239;19;20129;-63
2024/01/08 10:49:33;;;;;;;15.82;7.65;;;0.40;99.90;;;;;;7371981;19;20014;-70
2024/01/08 10:52:14;;;;;;;9.32;6.20;;;0.40;99.90;;;;;;7374342;19;20018;-71
2024/01/08 10:54:54;;;;;;;15.77;9.77;;;0.60;99.90;;;;;;7372785;19;20011;-71
2024/01/08 10:57:26;;;;;;;9.20;5.25;;;0.60;99.90;;;;;;7374748;19;20038;-72
2024/01/08 10:59:54;;;;;;;6.32;4.03;;;0.70;99.90;;;;;;7376738;19;20063;-73
2024/01/08 11:02:20;;;;;;;15.95;9.30;;;0.80;99.90;;;;;;7372944;19;20017;-73
2024/01/08 11:04:47;;;;;;;7.93;3.95;;;1.40;99.90;;;;;;7370660;19;20022;-73
2024/01/08 11:07:16;;;;;;;8.65;5.80;;;1.30;99.90;;;;;;7374319;19;20019;-73
2024/01/08 11:09:42;;;;;;;8.85;4.18;;;1.20;99.90;;;;;;7374321;19;20103;-73
2024/01/08 11:12:11;;;;;;;10.45;4.28;;;1.10;99.90;;;;;;7374566;19;20010;-74
2024/01/08 11:14:45;;;;;;;10.70;5.20;;;1.00;99.90;;;;;;7374450;19;20021;-74
2024/01/08 11:17:15;;;;;;;3.78;2.53;;;0.90;99.90;;;;;;7375980;19;20054;-73
2024/01/08 11:19:45;;;;;;;12.00;6.68;;;0.90;99.90;;;;;;7368568;19;20846;-74
2024/01/08 11:22:31;;;;;;;10.55;6.80;;;1.00;99.90;;;;;;7370358;19;20015;-74
2024/01/08 11:25:03;;;;;;;5.75;4.03;;;1.30;99.90;;;;;;7374276;19;20011;-74
2024/01/08 11:27:31;;;;;;;6.85;3.60;;;1.30;99.90;;;;;;7372345;19;20021;-74
2024/01/08 11:29:58;;;;;;;7.10;4.72;;;1.60;99.90;;;;;;7373720;19;20022;-63
2024/01/08 11:33:09;;;;;;;9.70;5.38;;;2.20;99.90;;;;;;7371799;19;20015;-64
2024/01/08 11:35:46;;;;;;;7.70;4.60;;;2.10;99.90;;;;;;7372428;19;20011;-64
2024/01/08 11:38:25;;;;;;;8.90;5.18;;;2.10;99.90;;;;;;7373675;19;20277;-63
2024/01/08 11:40:51;;;;;;;6.75;3.50;;;2.00;99.90;;;;;;7372483;19;20014;-63
2024/01/08 11:43:18;;;;;;;8.13;4.82;;;1.80;99.90;;;;;;7371383;19;20022;-62
2024/01/08 11:45:45;;;;;;;5.63;3.28;;;1.50;99.90;;;;;;7369465;19;20018;-63
2024/01/08 11:48:11;;;;;;;13.43;9.45;;;1.30;99.90;;;;;;7373646;19;20519;-62
2024/01/08 11:50:41;;;;;;;16.98;11.85;;;1.20;99.90;;;;;;7372849;19;20018;-62
2024/01/08 11:53:12;;;;;;;25.17;14.30;;;1.10;99.90;;;;;;7373556;19;20398;-62
2024/01/08 11:55:42;;;;;;;5.97;3.28;;;1.00;99.90;;;;;;7371073;19;20025;-63
2024/01/08 11:58:09;;;;;;;13.65;6.95;;;1.00;99.90;;;;;;7371240;19;20018;-63
2024/01/08 12:00:35;;;;;;;9.93;5.32;;;1.00;99.90;;;;;;7374450;19;20624;-72
2024/01/08 12:03:05;;;;;;;11.02;7.43;;;1.00;99.90;;;;;;7373439;19;20342;-62
2024/01/08 12:05:32;;;;;;;6.18;4.03;;;1.60;99.90;;;;;;7371901;19;20683;-71
2024/01/08 12:07:59;;;;;;;6.15;4.15;;;2.00;99.90;;;;;;7371828;19;20615;-73
2024/01/08 12:10:26;;;;;;;9.32;4.75;;;3.20;99.90;;;;;;7370774;19;20036;-70
2024/01/08 12:12:55;;;;;;;7.18;4.40;;;3.70;99.90;;;;;;7371598;19;20283;-62
2024/01/08 12:15:22;;;;;;;8.57;5.93;;;4.10;99.90;;;;;;7375243;19;20063;-63
2024/01/08 12:17:49;;;;;;;6.03;4.45;;;4.40;99.90;;;;;;7371735;19;20358;-63
2024/01/08 12:20:15;;;;;;;26.98;16.17;;;4.80;99.00;;;;;;7371883;19;20026;-63
2024/01/08 12:22:43;;;;;;;8.93;6.25;;;5.30;98.50;;;;;;7371248;19;20014;-64
2024/01/08 12:25:10;;;;;;;7.93;4.20;;;5.50;93.10;;;;;;7372162;19;20046;-64
2024/01/08 12:27:38;;;;;;;6.38;4.68;;;6.00;91.40;;;;;;7368349;19;20097;-73
2024/01/08 12:30:08;;;;;;;7.35;4.47;;;6.10;81.20;;;;;;7370565;19;20438;-72
2024/01/08 12:32:37;;;;;;;5.45;3.47;;;5.90;80.60;;;;;;7369136;19;20370;-63
2024/01/08 12:35:04;;;;;;;7.03;3.95;;;6.00;81.40;;;;;;7372913;19;20034;-71
2024/01/08 12:37:32;;;;;;;6.68;3.50;;;5.90;81.10;;;;;;7368942;19;20025;-75
2024/01/08 12:39:59;;;;;;;9.98;5.55;;;6.40;80.00;;;;;;7370760;19;20023;-74
2024/01/08 12:42:26;;;;;;;6.65;4.35;;;6.90;79.40;;;;;;7370955;19;20014;-66
2024/01/08 12:44:54;;;;;;;7.50;5.03;;;6.50;77.50;;;;;;7373338;19;20023;-65
2024/01/08 12:47:22;;;;;;;6.15;3.92;;;6.00;76.50;;;;;;7376434;19;20105;-66
2024/01/08 12:49:49;;;;;;;5.57;4.00;;;5.60;75.30;;;;;;7373970;19;20078;-69